Hampton, Connecticut
Current Conditions -  °F | °C
As of 8:28 AM on Thursday 18 Dec 2014 (Local Time) from KIJD Reporting Station
Broken Clouds Broken Clouds  
Wind Chill: 30°   Ceiling: 3600
Heat Index: 38°   Visibility: 10mi
Dew Point: 28°   Wind: 12mph
Humidity: 68%   Direction: 280°W
Pressure: 29.85"   Gusts: 23mph
Location:  41.78°N, 72.06°W
Report Text: KIJD 181328Z AUTO 28010G20KT 10SM SCT028 BKN036 03/M02 A2985 RMK AO2 T00331022
Loading
Personal Weather Stations






























Interactive Weather Map New forecast layout! Learn more

10-Day Weather Forecast

Advertisements
Track Severe Weather on mobile